Archer City, TX (76351)

6:28 PM CDT on July 27, 2016 (GMT -0500)
North Archer Co/Bowman | | Change Station

Elev 994 ft 33.81 °N, 98.58 °W | Updated 5 seconds ago

Clear
Clear
93.7 °F
Feels Like 89 °F
N
17.5
Wind Variable Wind from West
Gusts 19.9 mph

Today
High -- | Low -- °F
--% Chance of Precip.
Yesterday
High -- | Low -- °F
Precip. -- in
Pressure 29.87 in
Visibility 10.0 miles
Clouds Clear
Heat Index 89 °F
Dew Point 32 °F
Humidity 11%
Rainfall 0.00 in
Snow Depth Not available.
6:43 AM 8:37 PM
Last Quarter, 38% visible
METAR KCWC 272315Z AUTO 14014G20KT 10SM CLR 35/20 A2987 RMK AO2 T03530198
Pressure 29.87 in
Visibility 10.0 miles
Clouds Clear
Heat Index 89 °F
Dew Point 32 °F
Humidity 11%
Rainfall 0.00 in
Snow Depth Not available.
6:43 AM 8:37 PM
Last Quarter, 38% visible
METAR KCWC 272315Z AUTO 14014G20KT 10SM CLR 35/20 A2987 RMK AO2 T03530198

10-Day Weather Forecast

Almanac

Astronomy

Jul. 27, 2016 Rise Set
Actual Time
Civil Twilight
Nautical Twilight
Astronomical Twilight
Moon
Length of Visible Light
Length of Day
Tomorrow will be .
, % of the Moon is Illuminated

Today's Extremes

State Highs State Lows

Community

WunderPhotos

Upload Photos

1,927,954 photos uploaded!

WunderBlog® & News

Nearby

Air Quality

  Air Quality AQ Index Pollutant
Not available.

Snow Depth

Station Depth Elevation

Earthquake Activity

City Distance Mag. Time & Date
Minimum magnitude displayed is 2.5.

Coastal Water Temperatures

Place Temperature

Stations

Nearby Weather Stations

Station Location Temp. Windchill Dew Point Humidity Wind Precip. Elev Updated Type
                   

Watches & Warnings

There are currently no watches in effect.